Time;durP1;ratioP1;P1;durP2;ratioP2;P2;SDS_P1;SDS_P2;PMS_P1;PMS_P2;Temp;Humidity;BMP_temperature;BMP_pressure;BME280_temperature;BME280_humidity;BME280_pressure;Samples;Min_cycle;Max_cycle;Signal;HPM_P1;HPM_P2
2022/03/29 00:00:36;;;;;;;1.20;1.10;;;17.50;99.90;;;;;;5021408;28;20458;-62
2022/03/29 00:03:07;;;;;;;1.77;1.20;;;17.60;99.90;;;;;;5023698;28;20540;-62
2022/03/29 00:05:40;;;;;;;0.80;0.80;;;17.70;99.90;;;;;;5029920;28;20429;-62
2022/03/29 00:08:11;;;;;;;1.40;1.10;;;17.80;99.90;;;;;;5023585;28;20420;-62
2022/03/29 00:10:42;;;;;;;1.20;0.90;;;17.70;99.80;;;;;;5024354;28;20444;-62
2022/03/29 00:13:12;;;;;;;1.50;0.93;;;17.60;99.90;;;;;;5030683;28;20460;-62
2022/03/29 00:15:43;;;;;;;1.53;0.73;;;17.50;99.90;;;;;;5022929;28;20454;-62
2022/03/29 00:18:14;;;;;;;2.10;0.93;;;17.60;99.40;;;;;;5021425;28;20454;-63
2022/03/29 00:20:47;;;;;;;3.43;1.00;;;17.50;99.90;;;;;;5025043;28;20462;-63
2022/03/29 00:23:18;;;;;;;1.17;0.80;;;17.50;99.90;;;;;;5026500;28;20878;-62
2022/03/29 00:25:48;;;;;;;2.73;0.93;;;17.50;99.20;;;;;;5024364;28;20449;-62
2022/03/29 00:28:19;;;;;;;2.97;1.13;;;17.40;99.80;;;;;;5019975;28;20451;-62
2022/03/29 00:30:51;;;;;;;0.80;0.80;;;17.40;99.90;;;;;;5023116;28;20446;-65
2022/03/29 00:33:22;;;;;;;1.27;0.90;;;17.40;99.90;;;;;;5023127;28;20455;-65
2022/03/29 00:35:54;;;;;;;3.40;1.13;;;17.40;99.90;;;;;;5022037;28;20452;-61
2022/03/29 00:38:25;;;;;;;1.83;0.80;;;17.40;99.90;;;;;;5022387;28;20442;-61
2022/03/29 00:40:56;;;;;;;1.30;1.17;;;17.50;99.90;;;;;;5012553;28;20443;-69
2022/03/29 00:43:27;;;;;;;1.70;0.90;;;17.40;99.90;;;;;;5033176;28;20973;-62
2022/03/29 00:45:58;;;;;;;1.70;0.90;;;17.40;99.70;;;;;;5030457;28;20465;-62
2022/03/29 00:48:29;;;;;;;1.03;0.70;;;17.30;99.90;;;;;;5034929;28;20844;-63
2022/03/29 00:51:02;;;;;;;2.50;1.17;;;17.20;99.90;;;;;;5031961;28;20446;-63
2022/03/29 00:53:33;;;;;;;3.17;1.00;;;17.20;99.90;;;;;;5023688;28;20442;-64
2022/03/29 00:56:04;;;;;;;1.10;1.00;;;17.20;99.90;;;;;;5021328;28;20432;-72
2022/03/29 00:58:36;;;;;;;1.33;1.23;;;17.20;99.90;;;;;;5019748;28;20454;-72
2022/03/29 01:01:09;;;;;;;1.47;0.97;;;17.20;99.90;;;;;;5014825;28;20472;-70
2022/03/29 01:03:42;;;;;;;4.10;1.07;;;17.20;99.90;;;;;;5014080;28;20882;-71
2022/03/29 01:06:16;;;;;;;1.20;1.10;;;17.10;99.90;;;;;;5015615;28;20485;-70
2022/03/29 01:08:47;;;;;;;1.70;0.83;;;17.20;99.90;;;;;;5014044;28;20446;-70
2022/03/29 01:11:18;;;;;;;1.40;1.23;;;17.10;99.90;;;;;;5014815;28;20446;-72
2022/03/29 01:13:49;;;;;;;1.50;1.33;;;17.10;99.90;;;;;;5014593;28;20522;-69
2022/03/29 01:19:09;;;;;;;4.37;0.90;;;17.10;99.90;;;;;;4993800;28;20436;-67
2022/03/29 01:21:43;;;;;;;1.90;0.90;;;17.00;99.90;;;;;;5013890;28;20920;-72
2022/03/29 01:24:16;;;;;;;1.10;0.90;;;17.00;99.90;;;;;;5014966;28;20477;-68
2022/03/29 01:26:49;;;;;;;3.07;1.37;;;17.00;99.90;;;;;;5014385;28;20434;-64
2022/03/29 01:29:20;;;;;;;1.30;1.07;;;16.80;99.90;;;;;;5016715;28;20453;-67
2022/03/29 01:31:52;;;;;;;3.07;1.00;;;16.60;99.90;;;;;;5018452;28;20458;-66
2022/03/29 01:34:23;;;;;;;1.73;1.63;;;16.40;99.90;;;;;;5018386;28;20844;-67
2022/03/29 01:36:54;;;;;;;2.30;2.10;;;16.50;99.90;;;;;;5018211;28;20446;-72
2022/03/29 01:39:26;;;;;;;2.43;1.70;;;16.40;99.90;;;;;;5017948;28;20450;-65
2022/03/29 01:41:57;;;;;;;1.40;1.30;;;16.40;99.90;;;;;;5017677;28;20461;-64
2022/03/29 01:44:28;;;;;;;4.17;1.53;;;16.30;99.90;;;;;;5019053;28;20485;-66
2022/03/29 01:46:59;;;;;;;2.13;1.40;;;16.30;99.90;;;;;;5017940;28;20454;-64
2022/03/29 01:49:31;;;;;;;1.17;1.07;;;16.20;99.90;;;;;;5018691;28;20454;-63
2022/03/29 01:52:03;;;;;;;0.90;0.90;;;16.10;99.90;;;;;;5017904;28;20472;-66
2022/03/29 01:54:35;;;;;;;1.33;0.90;;;16.20;99.90;;;;;;5018738;28;20446;-64
2022/03/29 01:57:06;;;;;;;2.90;1.30;;;16.10;99.90;;;;;;5018454;28;20442;-63
2022/03/29 02:02:22;;;;;;;2.93;1.40;;;15.80;99.90;;;;;;5016671;28;20613;-64
2022/03/29 02:04:53;;;;;;;1.70;0.90;;;15.70;99.90;;;;;;5019185;28;20488;-65
2022/03/29 02:07:25;;;;;;;0.90;0.60;;;15.60;99.90;;;;;;5017667;28;20450;-65
2022/03/29 02:09:57;;;;;;;2.90;0.80;;;15.50;99.90;;;;;;5018755;28;20786;-65
2022/03/29 02:12:28;;;;;;;0.80;0.80;;;15.50;99.90;;;;;;5017990;28;20450;-64
2022/03/29 02:15:01;;;;;;;1.23;0.80;;;15.50;99.90;;;;;;5019311;28;20450;-65
2022/03/29 02:17:32;;;;;;;1.53;0.60;;;15.50;99.90;;;;;;5025892;28;20972;-62
2022/03/29 02:20:03;;;;;;;1.10;0.80;;;15.40;99.90;;;;;;5025564;28;20534;-64
2022/03/29 02:22:34;;;;;;;1.43;0.70;;;15.30;99.90;;;;;;5037470;28;20450;-64
2022/03/29 02:25:10;;;;;;;1.37;0.73;;;15.30;99.90;;;;;;5025655;28;20468;-63
2022/03/29 02:27:42;;;;;;;1.20;0.50;;;15.10;99.90;;;;;;5024232;28;20523;-62
2022/03/29 02:30:14;;;;;;;0.73;0.50;;;15.10;99.90;;;;;;5029958;28;20449;-63
2022/03/29 02:32:46;;;;;;;0.70;0.70;;;15.10;99.90;;;;;;5024099;28;20505;-62
2022/03/29 02:35:16;;;;;;;1.47;0.60;;;15.00;99.90;;;;;;5021653;28;20488;-62
2022/03/29 02:37:47;;;;;;;0.57;0.50;;;14.90;99.90;;;;;;5024282;28;20464;-61
2022/03/29 02:40:20;;;;;;;1.33;0.60;;;14.80;99.90;;;;;;5025022;28;20765;-62
2022/03/29 02:42:52;;;;;;;0.60;0.50;;;14.70;99.90;;;;;;5023921;28;20485;-63
2022/03/29 02:45:25;;;;;;;0.60;0.40;;;14.60;99.90;;;;;;5032821;28;20460;-62
2022/03/29 02:47:58;;;;;;;2.77;0.57;;;14.60;99.90;;;;;;5025870;28;20462;-62
2022/03/29 02:50:29;;;;;;;0.67;0.67;;;14.50;99.90;;;;;;5025613;28;20454;-62
2022/03/29 02:53:03;;;;;;;1.33;0.80;;;14.50;99.90;;;;;;5039561;28;20454;-62
2022/03/29 02:55:35;;;;;;;0.83;0.77;;;14.40;99.90;;;;;;5016999;28;20460;-62
2022/03/29 02:58:06;;;;;;;1.03;0.77;;;14.40;99.90;;;;;;5019607;28;20454;-63
2022/03/29 03:00:37;;;;;;;0.83;0.77;;;14.30;99.90;;;;;;5023409;28;20434;-64
2022/03/29 03:03:08;;;;;;;0.70;0.60;;;14.30;99.90;;;;;;5014495;28;20445;-63
2022/03/29 03:05:39;;;;;;;1.20;0.80;;;14.30;99.90;;;;;;5022957;28;20522;-63
2022/03/29 03:08:10;;;;;;;1.23;0.70;;;14.30;99.90;;;;;;5026514;28;20479;-62
2022/03/29 03:10:42;;;;;;;0.60;0.60;;;14.20;99.90;;;;;;5020001;28;20455;-62
2022/03/29 03:13:13;;;;;;;0.97;0.80;;;14.10;99.90;;;;;;5021730;28;20435;-63
2022/03/29 03:15:44;;;;;;;0.63;0.63;;;14.10;99.90;;;;;;5021403;28;20458;-62
2022/03/29 03:18:15;;;;;;;0.77;0.67;;;13.90;99.90;;;;;;5028238;28;20583;-62
2022/03/29 03:20:46;;;;;;;1.37;1.03;;;13.80;99.90;;;;;;5025771;28;20522;-62
2022/03/29 03:23:17;;;;;;;0.70;0.60;;;13.80;99.90;;;;;;5027155;28;20510;-62
2022/03/29 03:25:51;;;;;;;0.77;0.70;;;13.70;99.90;;;;;;5015995;28;20473;-63
2022/03/29 03:28:22;;;;;;;1.33;1.23;;;13.70;99.90;;;;;;5015771;28;20468;-65
2022/03/29 03:30:53;;;;;;;0.70;0.70;;;13.70;99.90;;;;;;5017127;28;20454;-61
2022/03/29 03:33:23;;;;;;;0.80;0.80;;;13.60;99.90;;;;;;5015531;28;20518;-61
2022/03/29 03:35:55;;;;;;;0.70;0.70;;;13.50;99.90;;;;;;5016710;28;20486;-61
2022/03/29 03:38:25;;;;;;;1.67;1.20;;;13.40;99.90;;;;;;5016489;28;20461;-61
2022/03/29 03:40:58;;;;;;;0.50;0.40;;;13.40;99.90;;;;;;5017025;28;20572;-61
2022/03/29 03:43:28;;;;;;;0.77;0.77;;;13.30;99.90;;;;;;5019950;28;20517;-61
2022/03/29 03:45:59;;;;;;;1.20;0.80;;;13.30;99.90;;;;;;5031003;28;21032;-61
2022/03/29 03:48:30;;;;;;;0.50;0.43;;;13.20;99.90;;;;;;5030285;28;20508;-61
2022/03/29 03:51:01;;;;;;;1.40;0.87;;;13.20;99.90;;;;;;5028149;28;20936;-61
2022/03/29 03:53:32;;;;;;;0.80;0.70;;;13.20;99.90;;;;;;5020372;28;20451;-61
2022/03/29 03:56:04;;;;;;;0.90;0.70;;;13.20;99.90;;;;;;5020471;28;20484;-61
2022/03/29 03:58:35;;;;;;;5.10;1.10;;;13.10;99.90;;;;;;5016651;28;20453;-60
2022/03/29 04:01:11;;;;;;;1.20;0.67;;;13.00;99.90;;;;;;5016644;28;20469;-60
2022/03/29 04:03:42;;;;;;;0.80;0.80;;;12.90;99.90;;;;;;5016454;28;20454;-62
2022/03/29 04:06:13;;;;;;;1.00;0.60;;;12.90;99.90;;;;;;5020115;28;20454;-61
2022/03/29 04:08:44;;;;;;;0.80;0.70;;;12.90;99.90;;;;;;5035101;28;20465;-62
2022/03/29 04:11:16;;;;;;;1.47;0.80;;;12.90;99.90;;;;;;5027433;28;20781;-63
2022/03/29 04:13:47;;;;;;;1.83;0.80;;;12.70;99.90;;;;;;5027728;28;20461;-61
2022/03/29 04:16:19;;;;;;;0.73;0.70;;;12.70;99.90;;;;;;5026212;28;20454;-61
2022/03/29 04:18:50;;;;;;;1.90;1.20;;;12.70;99.90;;;;;;5035022;28;20961;-61
2022/03/29 04:21:21;;;;;;;0.90;0.90;;;12.60;99.90;;;;;;5024966;28;20450;-61
2022/03/29 04:23:52;;;;;;;1.30;1.20;;;12.60;99.90;;;;;;5020443;28;21028;-61
2022/03/29 04:26:24;;;;;;;1.30;1.20;;;12.60;99.90;;;;;;5020559;28;20939;-62
2022/03/29 04:28:55;;;;;;;1.17;1.10;;;12.50;99.90;;;;;;5024220;28;20438;-61
2022/03/29 04:31:26;;;;;;;0.87;0.87;;;12.40;99.90;;;;;;5022630;28;20450;-61
2022/03/29 04:33:59;;;;;;;1.03;1.00;;;12.40;99.90;;;;;;5032132;28;20462;-61
2022/03/29 04:36:30;;;;;;;1.20;1.10;;;12.30;99.90;;;;;;5022288;28;20453;-61
2022/03/29 04:39:01;;;;;;;0.80;0.80;;;12.20;99.90;;;;;;5027213;28;20564;-61
2022/03/29 04:41:34;;;;;;;0.93;0.90;;;12.10;99.90;;;;;;5007339;28;20442;-61
2022/03/29 04:44:24;;;;;;;0.90;0.90;;;12.10;99.90;;;;;;5020771;28;20474;-61
2022/03/29 04:46:55;;;;;;;0.93;0.80;;;12.00;99.90;;;;;;5017411;28;20466;-61
2022/03/29 04:49:26;;;;;;;0.67;0.67;;;11.90;99.90;;;;;;5032531;28;20454;-62
2022/03/29 04:51:57;;;;;;;0.90;0.90;;;12.00;99.90;;;;;;5025522;28;20458;-61
2022/03/29 04:54:28;;;;;;;1.73;1.00;;;11.90;99.90;;;;;;5026457;28;20462;-62
2022/03/29 04:57:02;;;;;;;1.20;1.10;;;11.80;99.90;;;;;;5024954;28;20463;-62
2022/03/29 04:59:33;;;;;;;1.00;0.90;;;11.80;99.90;;;;;;5026575;28;20767;-61
2022/03/29 05:02:03;;;;;;;1.13;1.03;;;11.60;99.90;;;;;;5022261;28;20450;-61
2022/03/29 05:04:34;;;;;;;1.20;1.10;;;11.60;99.90;;;;;;5035414;28;20485;-61
2022/03/29 05:07:05;;;;;;;1.03;1.03;;;11.70;99.90;;;;;;5022126;28;20454;-62
2022/03/29 05:09:36;;;;;;;1.60;1.40;;;11.60;99.90;;;;;;5022930;28;21278;-62
2022/03/29 05:12:09;;;;;;;1.50;1.40;;;11.60;99.90;;;;;;5020614;28;20446;-62
2022/03/29 05:14:42;;;;;;;1.43;1.00;;;11.60;99.90;;;;;;5023729;28;20472;-61
2022/03/29 05:17:13;;;;;;;1.60;1.30;;;11.60;99.90;;;;;;5021896;28;20458;-61
2022/03/29 05:19:44;;;;;;;2.83;1.20;;;11.70;99.90;;;;;;5026253;28;20458;-62
2022/03/29 05:22:15;;;;;;;1.10;1.00;;;11.70;99.90;;;;;;5028668;28;20523;-61
2022/03/29 05:24:46;;;;;;;2.10;1.50;;;11.70;99.90;;;;;;5029545;28;20489;-61
2022/03/29 05:27:18;;;;;;;1.83;1.20;;;11.80;99.90;;;;;;5023574;28;20453;-62
2022/03/29 05:29:49;;;;;;;2.07;1.50;;;11.80;99.90;;;;;;5017718;28;20444;-61
2022/03/29 05:32:20;;;;;;;1.23;1.13;;;11.80;99.90;;;;;;5032538;28;20955;-62
2022/03/29 05:34:51;;;;;;;1.90;1.23;;;11.80;99.90;;;;;;5019609;28;20509;-62
2022/03/29 05:37:22;;;;;;;1.30;1.20;;;11.90;99.90;;;;;;5021689;28;20462;-61
2022/03/29 05:39:52;;;;;;;3.20;1.30;;;11.90;99.90;;;;;;5022550;28;20577;-61
2022/03/29 05:42:25;;;;;;;1.57;1.40;;;11.80;99.90;;;;;;5025616;28;20826;-62
2022/03/29 05:44:56;;;;;;;1.47;1.30;;;11.80;99.90;;;;;;5022638;28;20557;-61
2022/03/29 05:50:14;;;;;;;2.83;1.73;;;11.80;99.90;;;;;;5034912;28;20456;-61
2022/03/29 05:52:45;;;;;;;2.20;1.43;;;11.80;99.90;;;;;;5028436;28;20575;-62
2022/03/29 05:55:16;;;;;;;3.63;1.30;;;11.60;99.90;;;;;;5025018;28;20456;-62
2022/03/29 05:57:49;;;;;;;4.27;2.03;;;11.60;99.90;;;;;;5027916;28;20449;-61
2022/03/29 06:00:23;;;;;;;1.63;1.30;;;11.40;99.90;;;;;;5024726;28;20469;-61
2022/03/29 06:02:54;;;;;;;1.00;1.00;;;11.20;99.90;;;;;;5020391;28;20454;-61
2022/03/29 06:05:25;;;;;;;4.53;1.10;;;11.20;99.90;;;;;;5031727;28;20481;-61
2022/03/29 06:07:56;;;;;;;2.70;1.43;;;11.30;99.90;;;;;;5021774;28;20949;-62
2022/03/29 06:10:27;;;;;;;4.80;1.70;;;11.20;99.90;;;;;;5021393;28;20568;-61
2022/03/29 06:12:59;;;;;;;1.63;1.40;;;11.10;99.90;;;;;;5021153;28;20809;-61
2022/03/29 06:15:30;;;;;;;1.43;1.33;;;11.10;99.90;;;;;;5036801;28;20445;-61
2022/03/29 06:18:01;;;;;;;2.60;1.83;;;11.10;99.90;;;;;;5015537;28;20446;-61
2022/03/29 06:20:32;;;;;;;1.37;1.27;;;11.00;99.90;;;;;;5034960;28;20877;-61
2022/03/29 06:23:02;;;;;;;1.30;1.20;;;10.90;99.90;;;;;;5028153;28;20454;-61
2022/03/29 06:25:34;;;;;;;4.00;1.83;;;10.90;99.90;;;;;;5024728;28;20481;-61
2022/03/29 06:28:07;;;;;;;2.60;1.63;;;10.80;99.90;;;;;;5035354;28;20793;-61
2022/03/29 06:30:38;;;;;;;1.53;1.13;;;10.80;99.90;;;;;;5030045;28;20438;-61
2022/03/29 06:33:09;;;;;;;2.43;1.77;;;10.60;99.90;;;;;;5023101;28;20454;-62
2022/03/29 06:35:40;;;;;;;1.50;1.40;;;10.60;99.90;;;;;;5027317;28;20492;-61
2022/03/29 06:38:11;;;;;;;2.17;1.20;;;10.50;99.90;;;;;;5016039;28;20466;-62
2022/03/29 06:40:42;;;;;;;4.20;1.40;;;10.50;99.90;;;;;;5015678;28;20549;-61
2022/03/29 06:43:14;;;;;;;2.63;1.57;;;10.30;99.90;;;;;;5024224;28;20453;-61
2022/03/29 06:45:45;;;;;;;1.80;1.70;;;10.30;99.90;;;;;;5028581;28;21935;-61
2022/03/29 06:48:16;;;;;;;2.20;1.53;;;10.30;99.90;;;;;;5024678;28;20521;-61
2022/03/29 06:50:47;;;;;;;1.97;1.30;;;10.40;99.90;;;;;;5029293;28;20458;-61
2022/03/29 06:53:17;;;;;;;3.53;1.63;;;10.30;99.90;;;;;;5038092;28;20441;-61
2022/03/29 06:55:50;;;;;;;1.70;1.43;;;10.30;99.90;;;;;;5029197;28;20461;-61
2022/03/29 06:58:22;;;;;;;2.17;1.97;;;10.30;99.90;;;;;;5027998;28;20453;-61
2022/03/29 07:00:54;;;;;;;2.63;2.27;;;10.10;99.90;;;;;;5027852;28;20446;-61
2022/03/29 07:03:25;;;;;;;2.07;1.70;;;10.10;99.90;;;;;;5024681;28;20459;-61
2022/03/29 07:05:56;;;;;;;1.63;1.53;;;10.10;99.90;;;;;;5028282;28;20473;-61
2022/03/29 07:08:27;;;;;;;2.73;1.70;;;10.10;99.90;;;;;;5032018;28;20456;-61
2022/03/29 07:13:47;;;;;;;2.07;1.87;;;9.80;99.90;;;;;;5030321;28;20454;-62
2022/03/29 07:16:18;;;;;;;1.93;1.63;;;9.70;99.90;;;;;;5030788;28;20441;-61
2022/03/29 07:18:50;;;;;;;1.90;1.80;;;9.80;99.90;;;;;;5035936;28;20453;-61
2022/03/29 07:21:22;;;;;;;2.50;1.80;;;9.80;99.90;;;;;;5025981;28;20454;-61
2022/03/29 07:23:53;;;;;;;2.40;1.85;;;9.80;99.90;;;;;;5024174;28;20457;-61
2022/03/29 07:26:24;;;;;;;5.13;2.87;;;9.80;99.90;;;;;;5023523;28;20231;-61
2022/03/29 07:28:56;;;;;;;3.47;1.87;;;9.80;99.90;;;;;;5032900;28;20447;-62
2022/03/29 07:31:27;;;;;;;5.03;2.20;;;9.70;99.90;;;;;;5031193;28;20493;-61
2022/03/29 07:33:58;;;;;;;2.53;2.00;;;9.70;99.90;;;;;;5023567;28;20468;-61
2022/03/29 07:36:28;;;;;;;3.23;2.10;;;9.60;99.90;;;;;;5025117;28;20455;-61
2022/03/29 07:38:59;;;;;;;2.47;2.20;;;9.60;99.90;;;;;;5023558;28;20452;-61
2022/03/29 07:41:30;;;;;;;2.75;1.90;;;9.60;99.90;;;;;;5024062;28;20459;-61
2022/03/29 07:44:04;;;;;;;2.03;1.93;;;9.50;99.90;;;;;;5024397;28;20279;-61
2022/03/29 07:46:35;;;;;;;3.77;2.00;;;9.50;99.90;;;;;;5024621;28;20477;-61
2022/03/29 07:49:05;;;;;;;2.80;1.97;;;9.50;99.90;;;;;;5013025;28;20983;-61
2022/03/29 07:51:56;;;;;;;2.60;1.63;;;9.40;99.90;;;;;;5036056;28;20462;-61
2022/03/29 07:54:27;;;;;;;2.90;1.40;;;9.40;99.90;;;;;;5022970;28;20458;-61
2022/03/29 07:56:58;;;;;;;2.05;1.80;;;9.40;99.90;;;;;;5022909;28;20572;-61
2022/03/29 07:59:30;;;;;;;2.13;1.80;;;9.40;99.90;;;;;;5023204;28;20643;-61
2022/03/29 08:02:01;;;;;;;1.75;1.65;;;9.30;99.90;;;;;;5022475;28;20439;-61
2022/03/29 08:04:32;;;;;;;3.35;2.47;;;9.30;99.90;;;;;;5034427;28;20227;-61
2022/03/29 08:07:03;;;;;;;2.97;2.00;;;9.30;99.90;;;;;;5029140;28;20678;-61
2022/03/29 08:09:33;;;;;;;2.85;2.00;;;9.20;99.90;;;;;;5022185;28;20465;-61
2022/03/29 08:12:10;;;;;;;1.70;1.60;;;9.10;99.90;;;;;;5027773;28;20305;-61
2022/03/29 08:14:42;;;;;;;2.88;2.35;;;9.10;99.90;;;;;;5041611;28;20194;-61
2022/03/29 08:17:13;;;;;;;2.50;2.30;;;9.10;99.90;;;;;;5032119;28;20716;-61
2022/03/29 08:19:44;;;;;;;2.47;2.10;;;9.00;99.90;;;;;;5027908;28;20643;-61
2022/03/29 08:22:14;;;;;;;1.93;1.77;;;8.90;99.90;;;;;;5030086;28;20218;-61
2022/03/29 08:24:45;;;;;;;2.30;2.00;;;8.90;99.90;;;;;;5038160;28;20449;-61
2022/03/29 08:27:16;;;;;;;2.20;2.00;;;9.00;99.90;;;;;;5026788;28;20481;-61
2022/03/29 08:29:48;;;;;;;3.13;2.30;;;9.00;99.90;;;;;;5022663;28;20466;-62
2022/03/29 08:32:19;;;;;;;2.45;2.10;;;9.00;99.90;;;;;;5035660;28;20536;-61
2022/03/29 08:34:50;;;;;;;5.10;2.33;;;9.10;99.90;;;;;;5036086;28;20344;-60
2022/03/29 08:37:21;;;;;;;3.35;2.05;;;9.20;99.90;;;;;;5027225;28;20462;-61
2022/03/29 08:39:52;;;;;;;2.25;1.95;;;9.30;99.90;;;;;;5013093;28;20215;-60
2022/03/29 08:42:23;;;;;;;2.67;2.20;;;9.30;99.90;;;;;;5027825;28;20610;-61
2022/03/29 08:44:55;;;;;;;2.73;1.70;;;9.40;99.90;;;;;;5023081;28;20788;-61
2022/03/29 08:47:29;;;;;;;2.57;2.10;;;9.40;99.90;;;;;;5024001;28;20541;-61
2022/03/29 08:50:01;;;;;;;2.10;2.00;;;9.50;99.90;;;;;;5023271;28;20450;-61
2022/03/29 08:52:32;;;;;;;2.28;1.95;;;9.50;99.90;;;;;;5022303;28;20458;-61
2022/03/29 08:55:03;;;;;;;2.10;1.90;;;9.60;99.90;;;;;;5024953;28;20207;-61
2022/03/29 08:57:34;;;;;;;3.15;2.88;;;9.70;99.90;;;;;;5032604;28;20338;-61
2022/03/29 09:00:09;;;;;;;2.20;2.00;;;9.70;99.90;;;;;;5023203;28;20226;-61
2022/03/29 09:02:40;;;;;;;3.55;2.15;;;9.80;99.90;;;;;;5017049;28;20450;-61
2022/03/29 09:05:14;;;;;;;2.80;2.55;;;9.80;99.90;;;;;;5022418;28;20213;-61
2022/03/29 09:07:55;;;;;;;3.03;2.20;;;9.90;99.90;;;;;;5017216;28;20322;-61
2022/03/29 09:10:42;;;;;;;4.80;2.10;;;10.00;99.90;;;;;;5021569;28;20466;-60
2022/03/29 09:13:17;;;;;;;2.00;1.90;;;10.00;99.90;;;;;;5037360;28;20453;-61
2022/03/29 09:15:49;;;;;;;3.67;2.17;;;10.00;99.90;;;;;;5025944;28;20458;-61
2022/03/29 09:18:21;;;;;;;5.53;2.53;;;10.10;99.90;;;;;;5022423;28;20443;-61
2022/03/29 09:21:09;;;;;;;3.43;2.00;;;10.10;99.90;;;;;;5023041;28;20545;-61
2022/03/29 09:23:41;;;;;;;2.00;1.90;;;10.10;99.90;;;;;;5029509;28;20492;-61
2022/03/29 09:26:27;;;;;;;3.00;2.40;;;10.20;99.90;;;;;;5032016;28;20458;-61
2022/03/29 09:28:58;;;;;;;3.67;2.33;;;10.20;99.90;;;;;;5020732;28;20457;-61
2022/03/29 09:31:31;;;;;;;2.30;2.10;;;10.20;99.90;;;;;;5021736;28;20452;-61
2022/03/29 09:34:13;;;;;;;2.37;2.10;;;10.30;99.90;;;;;;5026426;28;20569;-61
2022/03/29 09:36:46;;;;;;;2.30;2.10;;;10.30;99.90;;;;;;5021204;28;20442;-61
2022/03/29 09:39:34;;;;;;;3.50;2.00;;;10.40;99.90;;;;;;5022255;28;20443;-61
2022/03/29 09:42:09;;;;;;;4.33;1.93;;;10.30;99.90;;;;;;5022482;28;20458;-61
2022/03/29 09:44:42;;;;;;;2.40;2.07;;;10.30;99.90;;;;;;5027841;28;20820;-61
2022/03/29 09:47:15;;;;;;;2.70;1.70;;;10.40;99.90;;;;;;5028997;28;20488;-61
2022/03/29 09:49:54;;;;;;;1.90;1.80;;;10.40;99.90;;;;;;5029855;28;20918;-61
2022/03/29 09:52:26;;;;;;;2.07;1.60;;;10.20;99.90;;;;;;5022741;28;20451;-61
2022/03/29 09:55:09;;;;;;;3.70;1.77;;;10.20;99.90;;;;;;5026581;28;20450;-61
2022/03/29 09:57:43;;;;;;;3.60;1.60;;;10.30;99.90;;;;;;5027735;28;20465;-61
2022/03/29 10:00:15;;;;;;;1.60;1.50;;;10.20;99.90;;;;;;5027729;28;20458;-61
2022/03/29 10:02:48;;;;;;;3.10;1.77;;;10.20;99.90;;;;;;5028393;28;20458;-61
2022/03/29 10:05:21;;;;;;;3.10;2.23;;;10.30;99.90;;;;;;5025328;28;20453;-61
2022/03/29 10:10:46;;;;;;;2.40;1.47;;;10.40;99.90;;;;;;5034914;28;20480;-61
2022/03/29 10:13:23;;;;;;;2.40;1.13;;;10.40;99.90;;;;;;5023867;28;20443;-62
2022/03/29 10:15:56;;;;;;;2.87;2.00;;;10.30;99.90;;;;;;5025610;28;20905;-61
2022/03/29 10:18:29;;;;;;;3.03;1.50;;;10.50;99.90;;;;;;5027469;28;20488;-61
2022/03/29 10:21:01;;;;;;;1.40;1.30;;;10.50;99.90;;;;;;5026069;28;20446;-61
2022/03/29 10:23:34;;;;;;;1.67;1.40;;;10.50;99.90;;;;;;5028439;28;20461;-61
2022/03/29 10:26:06;;;;;;;2.40;1.87;;;10.50;99.90;;;;;;5021770;28;20512;-62
2022/03/29 10:28:37;;;;;;;1.60;1.40;;;10.50;99.90;;;;;;5029646;28;20854;-61
2022/03/29 10:31:29;;;;;;;2.40;1.70;;;10.60;99.90;;;;;;5034536;28;20957;-61
2022/03/29 10:34:16;;;;;;;3.30;2.20;;;10.50;99.90;;;;;;5028571;28;20488;-61
2022/03/29 10:37:07;;;;;;;2.90;1.73;;;10.50;99.90;;;;;;5012899;28;20472;-60
2022/03/29 10:39:44;;;;;;;4.07;1.97;;;10.50;99.90;;;;;;5021747;28;20450;-61
2022/03/29 10:42:29;;;;;;;1.87;1.50;;;10.50;99.90;;;;;;5023840;28;20468;-61
2022/03/29 10:45:19;;;;;;;4.47;1.10;;;10.40;99.90;;;;;;5014261;28;20466;-61
2022/03/29 10:48:12;;;;;;;1.30;1.20;;;10.40;99.90;;;;;;5032291;28;20957;-61
2022/03/29 10:51:02;;;;;;;2.30;1.30;;;10.50;99.90;;;;;;5025254;28;20454;-61
2022/03/29 10:53:35;;;;;;;1.00;1.00;;;10.40;99.90;;;;;;5024438;28;20454;-61
2022/03/29 10:56:23;;;;;;;1.90;1.80;;;10.40;99.90;;;;;;5024686;28;20438;-61
2022/03/29 10:59:13;;;;;;;1.90;1.53;;;10.50;99.90;;;;;;5023565;28;20439;-61
2022/03/29 11:01:44;;;;;;;1.70;1.27;;;10.50;99.90;;;;;;5032332;28;20779;-61
2022/03/29 11:04:23;;;;;;;2.03;1.83;;;10.60;99.90;;;;;;5018565;28;20454;-61
2022/03/29 11:07:15;;;;;;;1.90;1.63;;;10.50;99.90;;;;;;5028365;28;20454;-61
2022/03/29 11:09:46;;;;;;;3.63;1.63;;;10.50;99.90;;;;;;5017013;28;20557;-61
2022/03/29 11:12:44;;;;;;;3.90;2.00;;;10.60;99.90;;;;;;5025234;28;20450;-61
2022/03/29 11:15:48;;;;;;;2.60;2.10;;;10.60;99.90;;;;;;5041973;28;20459;-61
2022/03/29 11:18:49;;;;;;;3.47;2.00;;;10.40;99.90;;;;;;5025130;28;20462;-61
2022/03/29 11:21:40;;;;;;;2.80;2.00;;;10.30;99.90;;;;;;5023172;28;20518;-61
2022/03/29 11:24:15;;;;;;;2.63;2.20;;;10.20;99.90;;;;;;5023754;28;20461;-61
2022/03/29 11:26:58;;;;;;;4.93;2.03;;;10.10;99.90;;;;;;5027871;28;20462;-61
2022/03/29 11:29:28;;;;;;;1.70;1.43;;;10.10;99.90;;;;;;5039206;28;20473;-61
2022/03/29 11:32:01;;;;;;;2.27;1.77;;;10.30;99.90;;;;;;5031112;28;20814;-61
2022/03/29 11:34:40;;;;;;;3.13;1.93;;;10.20;99.90;;;;;;5023059;28;20496;-61
2022/03/29 11:37:28;;;;;;;2.13;1.93;;;10.20;99.90;;;;;;5028259;28;20454;-61
2022/03/29 11:40:02;;;;;;;2.73;1.60;;;10.40;99.90;;;;;;5017715;28;20464;-61
2022/03/29 11:42:45;;;;;;;2.70;1.60;;;10.30;99.90;;;;;;5022108;28;20460;-61
2022/03/29 11:45:17;;;;;;;2.33;1.70;;;10.40;99.90;;;;;;5017762;28;20450;-61
2022/03/29 11:47:57;;;;;;;2.10;1.90;;;10.30;99.90;;;;;;5028380;28;20466;-62
2022/03/29 11:50:33;;;;;;;2.73;2.00;;;10.20;99.90;;;;;;5017741;28;20462;-61
2022/03/29 11:53:04;;;;;;;3.07;1.67;;;10.30;99.90;;;;;;5023963;28;20920;-61
2022/03/29 11:55:37;;;;;;;4.17;1.90;;;10.30;99.90;;;;;;5027034;28;20450;-61
2022/03/29 11:58:22;;;;;;;3.13;2.30;;;10.20;99.90;;;;;;5026851;28;20454;-61
2022/03/29 12:00:53;;;;;;;3.00;2.00;;;10.30;99.90;;;;;;5022132;28;20455;-61
2022/03/29 12:03:29;;;;;;;3.83;1.73;;;10.20;99.90;;;;;;5026886;28;20481;-61
2022/03/29 12:06:08;;;;;;;1.90;1.70;;;10.30;99.90;;;;;;5025740;28;20445;-61
2022/03/29 12:08:56;;;;;;;2.20;1.40;;;10.30;99.90;;;;;;5020648;28;20485;-61
2022/03/29 12:11:30;;;;;;;2.30;1.77;;;10.40;99.90;;;;;;5021361;28;20447;-61
2022/03/29 12:14:03;;;;;;;2.60;1.90;;;10.40;99.90;;;;;;5019282;28;20461;-61
2022/03/29 12:16:36;;;;;;;5.20;2.40;;;10.40;99.90;;;;;;5028452;28;20441;-61
2022/03/29 12:19:13;;;;;;;2.50;2.00;;;10.30;99.90;;;;;;5025234;28;20453;-60
2022/03/29 12:21:48;;;;;;;3.60;2.33;;;10.30;99.90;;;;;;5025744;28;20450;-61
2022/03/29 12:24:25;;;;;;;3.83;1.70;;;10.40;99.90;;;;;;5035659;28;20456;-61
2022/03/29 12:27:04;;;;;;;3.10;1.77;;;10.20;99.90;;;;;;5021257;28;20446;-61
2022/03/29 12:29:41;;;;;;;2.83;2.00;;;10.10;99.90;;;;;;5024152;28;20500;-61
2022/03/29 12:32:13;;;;;;;4.07;2.00;;;10.10;99.90;;;;;;5022894;28;20450;-61
2022/03/29 12:34:57;;;;;;;4.07;2.30;;;10.20;99.90;;;;;;5030768;28;20478;-61
2022/03/29 12:37:28;;;;;;;7.20;2.00;;;10.30;99.90;;;;;;5012778;28;20481;-61
2022/03/29 12:40:04;;;;;;;3.60;1.83;;;10.10;99.90;;;;;;5023615;28;20446;-61
2022/03/29 12:42:37;;;;;;;2.87;2.57;;;10.00;99.90;;;;;;5020214;28;20460;-61
2022/03/29 12:45:08;;;;;;;2.90;2.47;;;10.00;99.90;;;;;;5022233;28;20542;-61
2022/03/29 12:47:40;;;;;;;3.77;2.50;;;10.00;99.90;;;;;;5029490;28;20937;-61
2022/03/29 12:50:11;;;;;;;2.87;2.40;;;10.10;99.90;;;;;;5023594;28;20496;-61
2022/03/29 12:52:44;;;;;;;5.60;2.33;;;10.20;99.90;;;;;;5028907;28;20454;-60
2022/03/29 12:55:18;;;;;;;3.20;2.40;;;10.30;99.90;;;;;;5033651;28;20544;-61
2022/03/29 12:57:50;;;;;;;4.27;2.33;;;10.20;99.90;;;;;;5023551;28;20445;-61
2022/03/29 13:00:22;;;;;;;3.30;2.57;;;10.20;99.90;;;;;;5022503;28;20454;-61
2022/03/29 13:02:54;;;;;;;4.23;2.23;;;10.10;99.90;;;;;;5024306;28;20456;-61
2022/03/29 13:05:36;;;;;;;4.27;2.40;;;10.00;99.90;;;;;;5023707;28;20797;-61
2022/03/29 13:08:07;;;;;;;4.23;2.63;;;9.90;99.90;;;;;;5021739;28;20470;-61
2022/03/29 13:10:41;;;;;;;5.60;2.53;;;10.00;99.90;;;;;;5021980;28;20493;-61
2022/03/29 13:13:18;;;;;;;5.60;3.50;;;10.00;99.90;;;;;;5023788;28;20453;-61
2022/03/29 13:15:50;;;;;;;2.73;2.50;;;10.00;99.90;;;;;;5022257;28;20775;-61
2022/03/29 13:18:30;;;;;;;5.40;3.13;;;10.10;99.90;;;;;;5022097;28;20456;-60
2022/03/29 13:21:21;;;;;;;4.33;2.80;;;10.20;99.90;;;;;;5027282;28;20464;-61
2022/03/29 13:24:07;;;;;;;3.57;3.07;;;10.30;99.90;;;;;;5034148;28;20459;-60
2022/03/29 13:26:40;;;;;;;4.57;3.40;;;10.30;99.90;;;;;;5018899;28;20455;-61
2022/03/29 13:29:13;;;;;;;3.60;3.20;;;10.30;99.90;;;;;;5022281;28;20511;-61
2022/03/29 13:31:46;;;;;;;5.33;3.97;;;10.30;99.90;;;;;;5019843;28;20452;-61
2022/03/29 13:34:17;;;;;;;9.27;3.53;;;10.30;99.90;;;;;;5031983;28;20596;-61